Time;durP1;ratioP1;P1;durP2;ratioP2;P2;SDS_P1;SDS_P2;PMS_P1;PMS_P2;Temp;Humidity;BMP_temperature;BMP_pressure;BME280_temperature;BME280_humidity;BME280_pressure;Samples;Min_cycle;Max_cycle;Signal;HPM_P1;HPM_P2
2022/10/05 00:00:20;;;;;;;6.43;2.45;;;6.80;99.90;;;;;;5074429;28;20028;-69
2022/10/05 00:02:48;;;;;;;4.57;2.50;;;6.80;99.90;;;;;;5074715;28;20032;-69
2022/10/05 00:05:31;;;;;;;4.38;2.35;;;6.80;99.90;;;;;;5074352;28;20057;-69
2022/10/05 00:08:14;;;;;;;3.53;1.70;;;6.80;99.90;;;;;;5074132;28;20081;-69
2022/10/05 00:10:41;;;;;;;3.75;1.83;;;6.80;99.90;;;;;;5074051;28;20493;-69
2022/10/05 00:13:19;;;;;;;2.95;1.90;;;6.80;99.90;;;;;;5074474;28;20028;-69
2022/10/05 00:15:46;;;;;;;3.00;1.60;;;6.70;99.90;;;;;;5074161;28;20020;-69
2022/10/05 00:18:22;;;;;;;6.88;1.60;;;6.70;99.90;;;;;;5074052;28;20037;-69
2022/10/05 00:20:48;;;;;;;3.08;1.70;;;6.70;99.90;;;;;;5074374;28;20033;-69
2022/10/05 00:23:24;;;;;;;2.45;1.27;;;6.60;99.90;;;;;;5074018;28;20078;-69
2022/10/05 00:25:50;;;;;;;3.97;1.30;;;6.50;99.90;;;;;;5074314;28;20025;-69
2022/10/05 00:28:29;;;;;;;4.57;1.40;;;6.50;99.90;;;;;;5073788;28;20503;-69
2022/10/05 00:30:59;;;;;;;2.95;1.30;;;6.50;99.90;;;;;;5073886;28;20052;-69
2022/10/05 00:33:26;;;;;;;2.03;1.33;;;6.50;99.90;;;;;;5073840;28;20021;-69
2022/10/05 00:35:51;;;;;;;2.15;1.15;;;6.40;99.90;;;;;;5073825;28;20103;-69
2022/10/05 00:38:17;;;;;;;3.65;1.27;;;6.30;99.90;;;;;;5073650;28;20135;-69
2022/10/05 00:41:03;;;;;;;5.50;1.25;;;6.30;99.90;;;;;;5073453;28;20392;-69
2022/10/05 00:43:37;;;;;;;1.92;1.27;;;6.30;99.90;;;;;;5073408;28;20123;-69
2022/10/05 00:46:29;;;;;;;2.13;1.17;;;6.30;99.90;;;;;;5074129;28;20056;-69
2022/10/05 00:49:16;;;;;;;3.45;1.23;;;6.20;99.90;;;;;;5072923;28;20143;-69
2022/10/05 00:51:52;;;;;;;3.00;1.30;;;6.20;99.90;;;;;;5073535;28;20050;-69
2022/10/05 00:54:23;;;;;;;2.38;1.20;;;6.20;99.90;;;;;;5073573;28;20378;-69
2022/10/05 00:57:07;;;;;;;2.15;1.33;;;6.20;99.90;;;;;;5073302;28;20490;-69
2022/10/05 01:00:08;;;;;;;2.28;1.33;;;6.20;99.90;;;;;;5073502;28;20028;-69
2022/10/05 01:02:36;;;;;;;4.57;1.48;;;6.20;99.90;;;;;;5073571;28;20078;-69
2022/10/05 01:05:11;;;;;;;2.03;1.20;;;6.10;99.90;;;;;;5073413;28;20016;-69
2022/10/05 01:07:59;;;;;;;2.58;1.52;;;6.10;99.90;;;;;;5073218;28;20032;-69
2022/10/05 01:10:40;;;;;;;3.97;1.77;;;6.10;99.90;;;;;;5073184;28;20115;-69
2022/10/05 01:13:27;;;;;;;3.75;1.65;;;6.10;99.90;;;;;;5073332;28;20021;-69
2022/10/05 01:16:14;;;;;;;6.32;1.55;;;6.10;99.90;;;;;;5073264;28;20017;-69
2022/10/05 01:18:51;;;;;;;4.90;1.50;;;6.10;99.90;;;;;;5073185;28;20020;-69
2022/10/05 01:21:21;;;;;;;2.65;1.20;;;6.10;99.90;;;;;;5073486;28;20028;-69
2022/10/05 01:24:24;;;;;;;3.45;2.08;;;6.10;99.90;;;;;;5073205;28;20021;-69
2022/10/05 01:27:22;;;;;;;2.00;1.25;;;6.10;99.90;;;;;;5073168;28;20107;-69
2022/10/05 01:30:15;;;;;;;3.55;1.48;;;6.10;99.90;;;;;;5073428;28;20040;-69
2022/10/05 01:32:53;;;;;;;3.58;1.50;;;6.00;99.90;;;;;;5073626;28;20372;-69
2022/10/05 01:35:36;;;;;;;1.77;1.20;;;6.00;99.90;;;;;;5073053;28;20021;-69
2022/10/05 01:38:05;;;;;;;2.67;1.42;;;5.90;99.90;;;;;;5073230;28;20033;-69
2022/10/05 01:40:52;;;;;;;2.67;1.40;;;5.80;99.90;;;;;;5072778;28;20111;-70
2022/10/05 01:43:44;;;;;;;4.72;1.77;;;5.70;99.90;;;;;;5073019;28;20028;-69
2022/10/05 01:46:37;;;;;;;5.38;1.73;;;5.60;99.90;;;;;;5072995;28;20100;-69
2022/10/05 01:49:31;;;;;;;2.92;1.45;;;5.50;99.90;;;;;;5072793;28;20412;-69
2022/10/05 01:52:00;;;;;;;3.92;1.65;;;5.50;99.90;;;;;;5063572;28;20037;-69
2022/10/05 01:54:37;;;;;;;3.20;1.63;;;5.50;99.90;;;;;;5072680;28;20070;-69
2022/10/05 01:57:05;;;;;;;7.60;2.10;;;5.50;99.90;;;;;;5073144;28;20025;-69
2022/10/05 02:00:02;;;;;;;2.92;1.60;;;5.50;99.90;;;;;;5057069;28;20388;-69
2022/10/05 02:02:30;;;;;;;4.72;1.58;;;5.60;99.90;;;;;;5076816;28;20029;-69
2022/10/05 02:05:03;;;;;;;4.38;1.50;;;5.60;99.90;;;;;;5077006;28;20033;-69
2022/10/05 02:07:54;;;;;;;2.10;1.15;;;5.50;99.90;;;;;;5076493;28;20108;-69
2022/10/05 02:10:36;;;;;;;2.40;1.40;;;5.50;99.90;;;;;;5062318;28;20036;-69
2022/10/05 02:13:25;;;;;;;2.13;1.30;;;5.50;99.90;;;;;;5076851;28;20388;-69
2022/10/05 02:15:57;;;;;;;3.63;1.35;;;5.50;99.90;;;;;;5075551;28;20021;-69
2022/10/05 02:18:30;;;;;;;2.15;1.50;;;5.40;99.90;;;;;;5076523;28;20035;-69
2022/10/05 02:20:58;;;;;;;2.33;1.30;;;5.30;99.90;;;;;;5076667;28;20036;-69
2022/10/05 02:23:29;;;;;;;3.25;1.52;;;5.30;99.90;;;;;;5076337;28;20024;-69
2022/10/05 02:25:57;;;;;;;2.90;1.30;;;5.20;99.90;;;;;;5058155;28;20028;-69
2022/10/05 02:28:25;;;;;;;2.78;1.45;;;5.30;99.90;;;;;;5076138;28;20047;-69
2022/10/05 02:30:57;;;;;;;2.20;1.40;;;5.30;99.90;;;;;;5076199;28;20021;-69
2022/10/05 02:33:29;;;;;;;2.42;1.02;;;5.30;99.90;;;;;;5076229;28;20099;-69
2022/10/05 02:36:19;;;;;;;3.78;1.08;;;5.40;99.90;;;;;;5076113;28;20149;-69
2022/10/05 02:39:08;;;;;;;2.17;1.33;;;5.40;99.90;;;;;;5075020;28;20527;-69
2022/10/05 02:41:48;;;;;;;2.33;1.40;;;5.40;99.90;;;;;;5029407;28;20063;-69
2022/10/05 02:44:23;;;;;;;2.17;1.02;;;5.40;99.90;;;;;;5075956;28;20496;-69
2022/10/05 02:47:16;;;;;;;2.67;1.05;;;5.30;99.90;;;;;;5075876;28;20029;-69
2022/10/05 02:49:58;;;;;;;2.63;1.10;;;5.30;99.90;;;;;;5075977;28;20024;-69
2022/10/05 02:52:26;;;;;;;2.50;1.10;;;5.30;99.90;;;;;;5075903;28;20044;-69
2022/10/05 02:55:11;;;;;;;2.08;1.20;;;5.30;99.90;;;;;;5075783;28;20020;-69
2022/10/05 02:58:02;;;;;;;2.08;1.17;;;5.30;99.90;;;;;;5075707;28;20115;-69
2022/10/05 03:00:33;;;;;;;1.90;1.10;;;5.30;99.90;;;;;;5076034;28;20479;-69
2022/10/05 03:03:12;;;;;;;2.38;1.17;;;5.20;99.90;;;;;;5075945;28;20070;-69
2022/10/05 03:06:01;;;;;;;3.63;1.27;;;5.20;99.90;;;;;;5075637;28;20048;-69
2022/10/05 03:08:36;;;;;;;1.73;0.93;;;5.20;99.90;;;;;;5075332;28;20032;-69
2022/10/05 03:11:21;;;;;;;2.28;1.00;;;5.20;99.90;;;;;;5074436;28;20032;-69
2022/10/05 03:13:50;;;;;;;2.28;1.05;;;5.20;99.90;;;;;;5075756;28;20036;-69
2022/10/05 03:16:18;;;;;;;6.45;1.98;;;5.10;99.90;;;;;;5075385;28;20021;-69
2022/10/05 03:19:10;;;;;;;2.97;1.35;;;5.10;99.90;;;;;;5075303;28;20428;-69
2022/10/05 03:22:03;;;;;;;2.30;1.20;;;4.90;99.90;;;;;;5075501;28;20066;-69
2022/10/05 03:25:14;;;;;;;2.83;0.98;;;4.90;99.90;;;;;;5075624;28;20027;-69
2022/10/05 03:28:06;;;;;;;2.83;1.50;;;4.70;99.90;;;;;;5075060;28;20032;-68
2022/10/05 03:30:41;;;;;;;4.03;1.23;;;4.70;99.90;;;;;;5075346;28;20020;-69
2022/10/05 03:33:17;;;;;;;3.10;1.75;;;4.70;99.90;;;;;;5075366;28;20468;-69
2022/10/05 03:36:07;;;;;;;2.15;1.40;;;4.70;99.90;;;;;;5075042;28;20025;-68
2022/10/05 03:38:57;;;;;;;2.10;1.30;;;4.60;99.90;;;;;;5091270;22;20048;-74
2022/10/05 03:42:01;;;;;;;2.55;1.38;;;4.50;99.90;;;;;;5057055;28;20020;-74
2022/10/05 03:45:01;;;;;;;2.42;1.30;;;4.40;99.90;;;;;;4973731;28;20102;-74
2022/10/05 03:47:46;;;;;;;2.38;1.20;;;4.50;99.90;;;;;;5054483;28;20111;-74
2022/10/05 03:50:42;;;;;;;2.67;1.30;;;4.50;99.90;;;;;;5034256;28;20358;-74
2022/10/05 03:53:24;;;;;;;2.65;1.15;;;4.60;99.90;;;;;;5034597;28;20079;-74
2022/10/05 03:55:55;;;;;;;1.65;1.17;;;4.50;99.90;;;;;;5034246;28;20028;-74
2022/10/05 03:58:31;;;;;;;;;;;4.60;99.90;;;;;;5034911;28;20111;-74
2022/10/05 04:01:03;;;;;;;1.92;1.10;;;4.60;99.90;;;;;;5034535;28;19905;-72
2022/10/05 04:03:46;;;;;;;3.92;1.20;;;4.60;99.90;;;;;;5033268;28;20037;-73
2022/10/05 04:06:25;;;;;;;2.30;1.40;;;4.60;99.90;;;;;;5034336;28;20384;-74
2022/10/05 04:09:03;;;;;;;2.67;1.88;;;4.60;99.90;;;;;;5034107;28;20458;-73
2022/10/05 04:11:38;;;;;;;26.80;14.35;;;4.70;99.90;;;;;;5028519;28;20022;-74
2022/10/05 04:14:17;;;;;;;28.30;14.63;;;4.70;99.90;;;;;;5016366;28;20113;-74
2022/10/05 04:16:47;;;;;;;9.50;4.45;;;4.70;99.90;;;;;;5034219;28;20068;-73
2022/10/05 04:19:29;;;;;;;4.32;2.75;;;4.70;99.90;;;;;;5033737;28;20022;-73
2022/10/05 04:22:07;;;;;;;4.32;1.88;;;4.70;99.90;;;;;;5016214;28;20041;-73
2022/10/05 04:24:44;;;;;;;3.08;1.55;;;4.70;99.90;;;;;;5033931;28;20021;-73
2022/10/05 04:27:21;;;;;;;5.47;1.60;;;4.70;99.90;;;;;;5033872;28;20113;-74
2022/10/05 04:29:54;;;;;;;2.08;1.10;;;4.70;99.90;;;;;;5033854;28;20101;-73
2022/10/05 04:32:41;;;;;;;2.53;1.23;;;4.70;99.90;;;;;;5033829;28;20025;-73
2022/10/05 04:35:21;;;;;;;2.10;1.33;;;4.70;99.90;;;;;;5033599;28;20029;-73
2022/10/05 04:38:08;;;;;;;2.10;1.33;;;4.70;99.90;;;;;;5033601;28;20025;-73
2022/10/05 04:40:55;;;;;;;4.18;1.50;;;4.80;99.90;;;;;;5033576;28;20481;-73
2022/10/05 04:43:33;;;;;;;4.10;1.63;;;4.80;99.90;;;;;;5015941;28;20033;-73
2022/10/05 04:46:23;;;;;;;6.70;2.00;;;4.70;99.90;;;;;;5033715;28;20029;-73
2022/10/05 04:49:07;;;;;;;5.70;2.30;;;4.70;99.90;;;;;;5033788;28;20028;-73
2022/10/05 04:52:08;;;;;;;5.95;2.35;;;4.70;99.90;;;;;;5033678;28;20025;-73
2022/10/05 04:55:13;;;;;;;8.00;2.60;;;4.70;99.90;;;;;;4953448;29;20031;-73
2022/10/05 04:58:24;;;;;;;4.97;2.75;;;4.70;99.90;;;;;;5034076;28;20029;-73
2022/10/05 05:00:52;;;;;;;4.47;3.20;;;4.70;99.90;;;;;;5029641;28;20033;-73
2022/10/05 05:03:44;;;;;;;8.30;4.50;;;4.70;99.90;;;;;;5033652;28;20526;-73
2022/10/05 05:06:33;;;;;;;10.85;6.82;;;4.60;99.90;;;;;;5003037;28;20029;-73
2022/10/05 05:09:21;;;;;;;11.75;7.20;;;4.70;99.90;;;;;;5033233;28;20029;-73
2022/10/05 05:12:06;;;;;;;18.63;8.30;;;4.60;99.90;;;;;;4996211;28;20477;-73
2022/10/05 05:14:31;;;;;;;10.57;6.18;;;4.60;99.90;;;;;;5033827;28;20025;-73
2022/10/05 05:17:39;;;;;;;11.05;6.18;;;4.60;99.90;;;;;;5033567;28;20453;-72
2022/10/05 05:20:30;;;;;;;7.63;4.10;;;4.70;99.90;;;;;;5032647;28;20057;-73
2022/10/05 05:23:06;;;;;;;6.85;3.15;;;4.60;99.90;;;;;;5033275;28;20022;-73
2022/10/05 05:25:55;;;;;;;5.28;2.38;;;4.60;99.90;;;;;;5032993;28;20030;-73
2022/10/05 05:28:33;;;;;;;5.20;1.77;;;4.60;99.90;;;;;;5033059;28;20096;-72
2022/10/05 05:31:15;;;;;;;3.78;1.33;;;4.50;99.90;;;;;;5033107;28;20025;-73
2022/10/05 05:34:24;;;;;;;3.92;1.55;;;4.50;99.90;;;;;;5035051;28;20136;-73
2022/10/05 05:37:22;;;;;;;2.47;1.20;;;4.40;99.90;;;;;;5039680;28;20021;-73
2022/10/05 05:40:06;;;;;;;5.43;1.63;;;4.50;99.90;;;;;;5024119;28;20623;-73
2022/10/05 05:42:55;;;;;;;1.92;1.15;;;4.40;99.90;;;;;;5039945;28;20017;-73
2022/10/05 05:45:52;;;;;;;2.88;1.40;;;4.40;99.90;;;;;;5039587;28;20032;-73
2022/10/05 05:48:24;;;;;;;2.97;1.50;;;4.40;99.90;;;;;;5023609;28;20037;-73
2022/10/05 05:51:12;;;;;;;7.80;1.88;;;4.40;99.90;;;;;;5021795;28;20033;-72
2022/10/05 05:53:43;;;;;;;3.88;1.85;;;4.40;99.90;;;;;;5039808;28;20031;-72
2022/10/05 05:56:18;;;;;;;4.13;2.13;;;4.40;99.90;;;;;;5039195;28;20453;-73
2022/10/05 05:59:12;;;;;;;4.35;2.30;;;4.40;99.90;;;;;;5021664;28;20397;-73
2022/10/05 06:01:52;;;;;;;10.45;2.45;;;4.40;99.90;;;;;;5039930;28;20030;-73
2022/10/05 06:04:25;;;;;;;7.10;2.70;;;4.50;99.90;;;;;;5039724;28;20038;-72
2022/10/05 06:06:56;;;;;;;6.72;2.15;;;4.50;99.90;;;;;;5039409;28;20087;-73
2022/10/05 06:09:29;;;;;;;6.50;2.35;;;4.50;99.90;;;;;;5055989;28;20021;-73
2022/10/05 06:11:57;;;;;;;5.80;2.28;;;4.50;99.90;;;;;;5059372;28;20105;-72
2022/10/05 06:14:26;;;;;;;6.35;2.38;;;4.50;99.90;;;;;;5059318;28;20017;-72
2022/10/05 06:17:04;;;;;;;8.30;2.30;;;4.60;99.90;;;;;;5059302;28;20021;-73
2022/10/05 06:19:33;;;;;;;5.53;2.08;;;4.60;99.90;;;;;;5041367;28;20104;-73
2022/10/05 06:22:15;;;;;;;3.78;1.90;;;4.70;99.90;;;;;;5059514;28;20096;-73
2022/10/05 06:24:55;;;;;;;3.80;1.92;;;4.70;99.90;;;;;;5059253;28;20041;-73
2022/10/05 06:27:25;;;;;;;5.22;1.70;;;4.80;99.90;;;;;;5041060;28;20554;-73
2022/10/05 06:30:17;;;;;;;4.80;2.53;;;4.80;99.90;;;;;;5059091;28;20025;-73
2022/10/05 06:33:17;;;;;;;3.78;2.08;;;4.90;99.90;;;;;;5059205;28;20136;-73
2022/10/05 06:35:56;;;;;;;6.63;2.40;;;4.90;99.90;;;;;;5041194;28;20071;-73
2022/10/05 06:38:34;;;;;;;4.15;2.00;;;5.00;99.90;;;;;;5050684;28;20037;-73
2022/10/05 06:41:12;;;;;;;5.72;2.35;;;5.10;99.90;;;;;;5039101;28;20100;-73
2022/10/05 06:44:09;;;;;;;6.18;2.63;;;5.10;99.90;;;;;;5039137;28;20037;-72
2022/10/05 06:47:05;;;;;;;5.78;3.10;;;5.20;99.90;;;;;;5033575;28;20037;-73
2022/10/05 06:49:43;;;;;;;6.95;3.25;;;5.20;99.90;;;;;;5036465;28;20076;-73
2022/10/05 06:52:20;;;;;;;7.07;2.75;;;5.30;99.90;;;;;;5036222;28;20021;-73
2022/10/05 06:55:00;;;;;;;5.50;2.40;;;5.30;99.90;;;;;;5035921;28;20021;-73
2022/10/05 06:57:44;;;;;;;5.05;2.42;;;5.40;99.90;;;;;;5035698;28;20032;-73
2022/10/05 07:00:18;;;;;;;4.03;2.00;;;5.50;99.90;;;;;;5035845;28;20053;-73
2022/10/05 07:02:58;;;;;;;4.57;2.50;;;5.60;99.90;;;;;;5035994;28;20021;-73
2022/10/05 07:06:01;;;;;;;7.93;3.60;;;5.70;99.90;;;;;;5035977;28;20029;-73
2022/10/05 07:08:27;;;;;;;9.27;3.63;;;5.80;99.90;;;;;;5026502;28;20022;-73
2022/10/05 07:11:16;;;;;;;8.27;3.65;;;5.90;99.90;;;;;;5015546;28;20382;-74
2022/10/05 07:14:10;;;;;;;11.77;4.40;;;6.00;99.90;;;;;;4969776;28;20053;-74
2022/10/05 07:16:55;;;;;;;7.82;3.60;;;6.00;99.90;;;;;;4998084;28;20030;-73
2022/10/05 07:19:30;;;;;;;8.60;3.33;;;6.10;99.90;;;;;;5015899;28;20022;-74
2022/10/05 07:22:14;;;;;;;6.70;3.00;;;6.20;99.90;;;;;;5016122;28;20469;-74
2022/10/05 07:25:09;;;;;;;8.00;3.40;;;6.30;99.90;;;;;;4997867;28;20033;-73
2022/10/05 07:27:44;;;;;;;5.50;2.85;;;6.40;99.90;;;;;;5015249;28;20433;-74
2022/10/05 07:30:14;;;;;;;7.18;3.00;;;6.50;99.90;;;;;;5015951;28;20014;-74
2022/10/05 07:33:05;;;;;;;7.47;3.33;;;6.60;99.90;;;;;;5015357;28;20097;-74
2022/10/05 07:38:41;;;;;;;13.05;5.45;;;6.80;99.90;;;;;;5015252;28;20531;-73
2022/10/05 07:41:18;;;;;;;11.48;4.78;;;7.00;99.90;;;;;;5015152;28;20033;-73
2022/10/05 07:43:59;;;;;;;6.03;3.63;;;7.10;99.90;;;;;;5015418;28;20038;-74
2022/10/05 07:46:45;;;;;;;7.13;3.63;;;7.20;99.90;;;;;;5015694;28;20413;-73
2022/10/05 07:49:39;;;;;;;5.97;3.22;;;7.40;99.90;;;;;;5014993;28;20446;-72
2022/10/05 07:52:36;;;;;;;6.07;3.28;;;7.50;99.90;;;;;;5015244;28;20026;-74
2022/10/05 07:55:17;;;;;;;6.78;3.75;;;7.60;99.90;;;;;;5015006;28;20101;-73
2022/10/05 07:58:15;;;;;;;11.80;5.45;;;7.80;99.90;;;;;;5015080;28;20022;-75
2022/10/05 08:00:40;;;;;;;7.07;5.20;;;7.90;99.90;;;;;;5015121;28;20105;-75
2022/10/05 08:03:15;;;;;;;10.20;5.95;;;8.10;99.90;;;;;;5014731;28;20112;-76
2022/10/05 08:05:44;;;;;;;6.82;4.40;;;8.30;99.90;;;;;;5015284;28;20033;-76
2022/10/05 08:08:20;;;;;;;6.95;4.57;;;8.40;99.90;;;;;;5027893;28;20025;-76
2022/10/05 08:10:50;;;;;;;9.15;4.80;;;8.50;99.90;;;;;;5054356;28;20504;-77
2022/10/05 08:13:26;;;;;;;6.73;4.40;;;8.70;99.90;;;;;;5054592;28;20492;-76
2022/10/05 08:15:57;;;;;;;6.63;4.88;;;8.80;99.90;;;;;;5054507;28;20025;-76
2022/10/05 08:18:53;;;;;;;7.40;4.47;;;8.90;99.90;;;;;;5054287;28;20112;-77
2022/10/05 08:21:25;;;;;;;6.53;4.30;;;9.00;99.90;;;;;;5054392;28;20428;-76
2022/10/05 08:24:02;;;;;;;4.68;2.55;;;9.10;99.90;;;;;;5054001;28;20104;-76
2022/10/05 08:26:58;;;;;;;3.45;2.00;;;9.20;99.90;;;;;;5053777;28;20036;-76
2022/10/05 08:29:41;;;;;;;6.93;2.97;;;9.30;99.90;;;;;;5053912;28;20029;-76
2022/10/05 08:32:44;;;;;;;5.40;2.90;;;9.50;99.90;;;;;;5054195;28;20481;-74
2022/10/05 08:35:39;;;;;;;5.97;3.22;;;9.60;99.90;;;;;;5041840;28;20484;-74
2022/10/05 08:38:18;;;;;;;5.53;3.42;;;9.70;99.90;;;;;;5053925;28;20029;-74
2022/10/05 08:41:09;;;;;;;7.45;4.55;;;9.90;99.90;;;;;;5053994;28;20021;-74
2022/10/05 08:44:13;;;;;;;9.68;5.05;;;10.00;99.90;;;;;;5053988;28;20025;-74
2022/10/05 08:47:16;;;;;;;7.97;4.93;;;10.10;99.90;;;;;;5035703;28;20036;-74
2022/10/05 08:50:23;;;;;;;7.32;4.60;;;10.30;99.90;;;;;;5049424;28;20075;-74
2022/10/05 08:53:11;;;;;;;7.65;4.70;;;10.40;99.90;;;;;;5053482;28;20111;-74
2022/10/05 08:55:45;;;;;;;6.75;4.15;;;10.60;99.90;;;;;;5053453;28;20049;-75
2022/10/05 08:58:16;;;;;;;5.25;3.67;;;10.70;99.90;;;;;;5053647;28;20354;-74
2022/10/05 09:00:54;;;;;;;;;;;10.90;99.90;;;;;;5053786;28;20021;-74
2022/10/05 09:03:26;;;;;;;5.93;3.47;;;11.00;99.90;;;;;;5053331;28;19905;-74
2022/10/05 09:06:13;;;;;;;6.05;3.00;;;11.20;99.90;;;;;;5035711;28;20477;-74
2022/10/05 09:09:05;;;;;;;5.45;2.88;;;11.30;99.90;;;;;;5052452;28;20029;-74
2022/10/05 09:11:39;;;;;;;4.88;3.10;;;11.40;99.90;;;;;;5053287;28;20017;-74
2022/10/05 09:14:27;;;;;;;5.25;2.92;;;11.60;99.90;;;;;;5053524;28;20528;-74
2022/10/05 09:17:28;;;;;;;6.97;3.45;;;11.80;99.90;;;;;;5053550;28;20376;-76
2022/10/05 09:20:03;;;;;;;8.73;4.75;;;12.00;99.90;;;;;;5053160;28;20021;-74
2022/10/05 09:22:37;;;;;;;7.05;4.82;;;12.20;99.90;;;;;;5053103;28;20021;-74
2022/10/05 09:25:50;;;;;;;7.22;3.63;;;12.40;99.90;;;;;;5053111;28;20025;-74
2022/10/05 09:28:24;;;;;;;8.30;2.60;;;12.60;99.90;;;;;;5017061;28;20036;-74
2022/10/05 09:31:15;;;;;;;3.63;1.83;;;12.80;99.90;;;;;;5053012;28;20021;-74
2022/10/05 09:34:09;;;;;;;3.67;1.38;;;12.90;99.90;;;;;;5053035;28;20029;-74
2022/10/05 09:36:47;;;;;;;4.75;1.40;;;13.10;99.90;;;;;;5053474;28;20039;-74
2022/10/05 09:39:39;;;;;;;2.55;1.50;;;13.30;99.90;;;;;;5053267;28;20493;-74
2022/10/05 09:42:42;;;;;;;8.40;1.55;;;13.50;99.90;;;;;;5052988;28;20029;-74
2022/10/05 09:45:34;;;;;;;5.63;1.50;;;13.60;99.90;;;;;;5053160;28;20074;-74
2022/10/05 09:48:15;;;;;;;3.45;1.38;;;13.70;99.90;;;;;;5052763;28;20017;-73
2022/10/05 09:51:06;;;;;;;4.22;1.50;;;13.90;99.90;;;;;;5052909;28;20021;-74
2022/10/05 09:53:46;;;;;;;3.50;1.80;;;14.10;99.90;;;;;;5053392;28;20025;-74
2022/10/05 09:56:33;;;;;;;3.07;1.77;;;14.20;99.90;;;;;;5053080;28;20392;-74
2022/10/05 09:59:36;;;;;;;3.33;1.70;;;14.30;99.90;;;;;;5052705;28;20025;-73
2022/10/05 10:02:31;;;;;;;4.43;1.70;;;14.50;99.90;;;;;;5053143;28;20501;-74
2022/10/05 10:05:15;;;;;;;4.05;1.70;;;14.70;99.90;;;;;;4981818;28;20511;-73
2022/10/05 10:08:00;;;;;;;2.40;1.50;;;14.90;99.90;;;;;;5052445;28;20029;-73
2022/10/05 10:10:51;;;;;;;1.98;1.48;;;15.10;99.90;;;;;;5052933;28;20380;-73
2022/10/05 10:13:44;;;;;;;3.42;1.75;;;15.50;99.90;;;;;;5052658;28;20021;-74
2022/10/05 10:16:28;;;;;;;5.38;2.53;;;15.70;99.90;;;;;;5052623;28;20028;-73
2022/10/05 10:19:08;;;;;;;3.88;1.60;;;15.80;99.90;;;;;;5052618;28;20025;-73
2022/10/05 10:21:55;;;;;;;4.93;1.33;;;16.00;99.90;;;;;;5056468;28;20057;-73
2022/10/05 10:24:40;;;;;;;5.40;1.85;;;16.10;99.90;;;;;;5056557;28;20087;-73
2022/10/05 10:27:06;;;;;;;3.05;1.30;;;16.20;99.90;;;;;;5056125;28;20033;-73
2022/10/05 10:29:38;;;;;;;3.10;1.52;;;16.40;99.90;;;;;;5056244;28;20028;-73
2022/10/05 10:32:08;;;;;;;2.40;1.60;;;16.50;99.90;;;;;;5056475;28;20029;-73
2022/10/05 10:34:58;;;;;;;3.97;1.60;;;16.70;99.90;;;;;;5056115;28;20021;-73
2022/10/05 10:37:59;;;;;;;4.10;1.30;;;16.80;99.90;;;;;;5056051;28;20047;-73
2022/10/05 10:40:25;;;;;;;4.35;1.50;;;16.80;99.90;;;;;;5055389;28;20130;-73
2022/10/05 10:43:06;;;;;;;3.13;1.17;;;16.90;99.90;;;;;;5037908;28;20083;-73
2022/10/05 10:45:50;;;;;;;4.30;1.17;;;16.90;99.90;;;;;;5056017;28;20029;-73
2022/10/05 10:48:28;;;;;;;2.58;1.10;;;16.90;99.90;;;;;;5056113;28;20025;-72
2022/10/05 10:51:22;;;;;;;2.67;1.15;;;17.00;99.90;;;;;;5037958;28;20116;-72
2022/10/05 10:53:57;;;;;;;2.80;1.38;;;17.10;99.90;;;;;;5038471;28;20017;-73
2022/10/05 10:57:02;;;;;;;2.40;1.13;;;17.20;99.90;;;;;;5055758;28;20358;-73
2022/10/05 10:59:49;;;;;;;2.38;1.27;;;17.30;99.50;;;;;;5055714;28;20056;-73
2022/10/05 11:02:20;;;;;;;1.77;1.00;;;17.40;99.00;;;;;;5055948;28;20420;-73
2022/10/05 11:05:20;;;;;;;3.72;1.30;;;17.50;98.10;;;;;;5055565;28;20385;-73
2022/10/05 11:08:14;;;;;;;3.33;1.50;;;17.60;98.40;;;;;;5055387;28;20032;-72
2022/10/05 11:10:44;;;;;;;5.32;1.52;;;17.70;99.50;;;;;;5037560;28;20025;-72
2022/10/05 11:13:46;;;;;;;3.67;1.60;;;17.80;99.90;;;;;;5055281;28;20025;-74
2022/10/05 11:16:30;;;;;;;3.97;2.65;;;17.80;99.90;;;;;;5055402;28;20021;-72
2022/10/05 11:19:11;;;;;;;8.10;1.70;;;17.90;98.00;;;;;;5055325;28;20101;-72
2022/10/05 11:22:04;;;;;;;2.55;1.30;;;18.00;99.50;;;;;;5055576;28;20025;-72
2022/10/05 11:25:08;;;;;;;2.45;1.40;;;18.10;99.00;;;;;;5055153;28;20021;-72
2022/10/05 11:27:46;;;;;;;6.68;1.63;;;18.00;97.30;;;;;;5044186;28;20041;-72
2022/10/05 11:30:29;;;;;;;5.03;1.35;;;18.00;98.80;;;;;;5034319;28;20049;-72
2022/10/05 11:33:13;;;;;;;3.75;1.30;;;18.00;98.20;;;;;;5034491;28;20377;-72
2022/10/05 11:36:09;;;;;;;2.35;1.30;;;18.20;98.20;;;;;;5034653;28;20432;-72
2022/10/05 11:38:57;;;;;;;3.78;1.65;;;18.20;96.70;;;;;;5043660;28;20037;-72
2022/10/05 11:41:43;;;;;;;7.13;1.23;;;18.30;96.30;;;;;;5054645;28;20058;-72
2022/10/05 11:44:28;;;;;;;2.97;1.60;;;18.40;96.70;;;;;;5036896;28;20052;-72
2022/10/05 11:47:18;;;;;;;6.28;1.83;;;18.40;96.60;;;;;;5054809;28;20029;-72
2022/10/05 11:50:05;;;;;;;2.67;1.35;;;18.50;96.50;;;;;;5035761;28;20475;-72
2022/10/05 11:52:58;;;;;;;3.63;1.40;;;18.60;96.30;;;;;;5027250;28;20032;-73
2022/10/05 11:55:39;;;;;;;2.65;1.50;;;18.70;95.80;;;;;;5034296;28;20033;-72
2022/10/05 11:58:26;;;;;;;4.30;1.63;;;18.80;93.70;;;;;;5027674;28;20030;-72
2022/10/05 12:00:59;;;;;;;2.72;1.90;;;18.80;94.10;;;;;;5031911;28;20052;-72
2022/10/05 12:03:50;;;;;;;2.35;1.38;;;18.90;93.90;;;;;;5012730;28;20112;-72
2022/10/05 12:07:01;;;;;;;4.15;1.60;;;19.00;94.00;;;;;;5031127;28;20029;-73
2022/10/05 12:10:13;;;;;;;4.80;1.38;;;19.00;94.10;;;;;;4970263;28;20490;-72
2022/10/05 12:13:00;;;;;;;3.78;1.60;;;19.20;93.70;;;;;;5028845;28;20040;-72
2022/10/05 12:15:47;;;;;;;4.43;1.80;;;19.30;93.20;;;;;;5034153;28;20490;-73
2022/10/05 12:18:24;;;;;;;2.85;1.40;;;19.40;92.90;;;;;;5027749;28;20072;-72
2022/10/05 12:21:01;;;;;;;4.32;1.67;;;19.50;92.10;;;;;;5034107;28;20017;-72
2022/10/05 12:23:26;;;;;;;5.68;1.95;;;19.60;92.80;;;;;;5033982;28;20100;-72
2022/10/05 12:25:58;;;;;;;3.13;1.50;;;19.70;92.50;;;;;;5038271;28;20458;-73
2022/10/05 12:28:37;;;;;;;4.40;1.25;;;19.70;92.50;;;;;;5033153;28;20033;-72
2022/10/05 12:31:25;;;;;;;2.80;1.20;;;19.80;91.10;;;;;;5033844;28;20041;-72
2022/10/05 12:34:04;;;;;;;3.10;1.10;;;19.90;85.40;;;;;;5035051;28;20021;-72
2022/10/05 12:36:41;;;;;;;4.25;1.20;;;20.00;88.50;;;;;;5033360;28;20064;-72
2022/10/05 12:39:24;;;;;;;3.85;1.52;;;20.10;91.40;;;;;;5032685;28;20041;-72
2022/10/05 12:42:05;;;;;;;5.50;1.85;;;20.20;89.10;;;;;;5032357;28;20029;-72
2022/10/05 12:44:55;;;;;;;2.67;1.83;;;20.30;90.40;;;;;;5032186;28;20497;-72
2022/10/05 12:47:45;;;;;;;5.18;2.38;;;20.30;90.90;;;;;;5021335;28;20030;-72
2022/10/05 12:50:20;;;;;;;3.05;2.22;;;20.30;92.00;;;;;;5013805;28;20022;-72
2022/10/05 12:53:21;;;;;;;3.10;1.90;;;20.40;92.20;;;;;;5014440;28;20021;-72
2022/10/05 12:56:10;;;;;;;3.38;1.83;;;20.50;91.30;;;;;;4996591;28;20089;-72
2022/10/05 12:58:51;;;;;;;5.05;2.20;;;20.50;92.10;;;;;;5014615;28;20026;-73
2022/10/05 13:01:33;;;;;;;5.07;2.78;;;20.60;92.20;;;;;;5014194;28;20030;-72
2022/10/05 13:04:25;;;;;;;5.30;1.83;;;20.70;92.40;;;;;;5014133;28;20430;-72
2022/10/05 13:07:15;;;;;;;2.97;1.73;;;20.70;92.00;;;;;;5013763;28;20060;-72
2022/10/05 13:09:53;;;;;;;4.03;1.90;;;20.80;91.30;;;;;;5032699;28;20036;-72
2022/10/05 13:12:34;;;;;;;6.15;1.85;;;20.90;86.60;;;;;;5033176;28;20080;-72
2022/10/05 13:15:00;;;;;;;3.00;1.80;;;21.00;90.30;;;;;;5033183;28;20422;-72
2022/10/05 13:17:28;;;;;;;5.82;2.05;;;21.20;89.80;;;;;;5015408;28;20074;-72
2022/10/05 13:20:02;;;;;;;5.72;1.92;;;21.20;89.70;;;;;;5033041;28;20067;-73
2022/10/05 13:22:45;;;;;;;2.65;1.50;;;21.30;86.30;;;;;;5033365;28;20109;-72
2022/10/05 13:25:27;;;;;;;3.08;1.90;;;21.40;87.80;;;;;;5033058;28;20160;-72
2022/10/05 13:28:13;;;;;;;4.95;2.05;;;21.60;87.10;;;;;;5032960;28;20100;-72
2022/10/05 13:30:48;;;;;;;3.75;2.30;;;21.70;81.80;;;;;;5033560;28;20056;-72
2022/10/05 13:33:18;;;;;;;4.00;1.95;;;21.80;80.50;;;;;;5033147;28;20444;-72
2022/10/05 13:35:54;;;;;;;3.70;1.92;;;21.80;84.60;;;;;;5033739;28;20557;-72
2022/10/05 13:38:45;;;;;;;4.00;1.45;;;21.80;83.80;;;;;;5023488;28;20123;-72
2022/10/05 13:41:55;;;;;;;4.30;1.52;;;21.90;86.20;;;;;;5053050;28;20024;-72
2022/10/05 13:44:33;;;;;;;4.63;1.80;;;22.00;87.00;;;;;;5008250;28;20033;-72
2022/10/05 13:47:04;;;;;;;2.50;1.40;;;22.00;85.90;;;;;;5052866;28;20029;-72
2022/10/05 13:49:58;;;;;;;2.17;1.20;;;22.00;85.10;;;;;;5034994;28;20025;-72
2022/10/05 13:52:39;;;;;;;1.60;1.00;;;22.00;85.30;;;;;;5053129;28;20025;-72
2022/10/05 13:55:04;;;;;;;2.88;1.10;;;22.10;85.00;;;;;;5054546;28;20032;-72
2022/10/05 13:57:55;;;;;;;4.75;1.35;;;22.10;86.00;;;;;;5056881;28;20032;-71
2022/10/05 14:00:22;;;;;;;2.60;1.30;;;22.20;84.90;;;;;;5052529;28;20082;-71
2022/10/05 14:02:51;;;;;;;5.32;1.35;;;22.20;85.20;;;;;;4999421;28;20053;-71
2022/10/05 14:05:25;;;;;;;3.78;1.80;;;22.20;83.30;;;;;;5017435;28;20100;-71
2022/10/05 14:08:15;;;;;;;5.55;1.50;;;22.30;82.70;;;;;;5003693;28;20083;-72
2022/10/05 14:10:44;;;;;;;5.43;1.77;;;22.40;79.80;;;;;;5036308;28;20026;-71
2022/10/05 14:13:45;;;;;;;3.15;1.20;;;22.40;81.10;;;;;;5036521;28;20028;-71
2022/10/05 14:16:23;;;;;;;2.60;1.35;;;22.40;82.00;;;;;;5036645;28;20026;-72